sensor_id;sensor_type;location;lat;lon;timestamp;P1;durP1;ratioP1;P2;durP2;ratioP2
81056;SDS011;70563;50.084;14.468;2023-06-24T00:00:26;2.30;;;1.80;;
81056;SDS011;70563;50.084;14.468;2023-06-24T00:02:51;2.63;;;2.10;;
81056;SDS011;70563;50.084;14.468;2023-06-24T00:05:18;3.22;;;2.10;;
81056;SDS011;70563;50.084;14.468;2023-06-24T00:07:44;2.63;;;1.85;;
81056;SDS011;70563;50.084;14.468;2023-06-24T00:10:13;2.58;;;1.80;;
81056;SDS011;70563;50.084;14.468;2023-06-24T00:12:39;2.88;;;2.25;;
81056;SDS011;70563;50.084;14.468;2023-06-24T00:15:06;3.72;;;1.83;;
81056;SDS011;70563;50.084;14.468;2023-06-24T00:17:35;2.30;;;1.75;;
81056;SDS011;70563;50.084;14.468;2023-06-24T00:20:01;2.70;;;1.92;;
81056;SDS011;70563;50.084;14.468;2023-06-24T00:22:29;3.03;;;2.28;;
81056;SDS011;70563;50.084;14.468;2023-06-24T00:24:54;3.97;;;2.58;;
81056;SDS011;70563;50.084;14.468;2023-06-24T00:27:20;3.95;;;2.60;;
81056;SDS011;70563;50.084;14.468;2023-06-24T00:29:45;4.25;;;2.63;;
81056;SDS011;70563;50.084;14.468;2023-06-24T00:32:10;3.50;;;2.35;;
81056;SDS011;70563;50.084;14.468;2023-06-24T00:34:36;2.92;;;2.33;;
81056;SDS011;70563;50.084;14.468;2023-06-24T00:37:01;3.92;;;2.85;;
81056;SDS011;70563;50.084;14.468;2023-06-24T00:39:28;3.72;;;2.97;;
81056;SDS011;70563;50.084;14.468;2023-06-24T00:41:53;4.82;;;2.55;;
81056;SDS011;70563;50.084;14.468;2023-06-24T00:44:19;4.07;;;3.25;;
81056;SDS011;70563;50.084;14.468;2023-06-24T00:46:44;4.10;;;2.75;;
81056;SDS011;70563;50.084;14.468;2023-06-24T00:49:10;4.63;;;3.10;;
81056;SDS011;70563;50.084;14.468;2023-06-24T00:51:40;3.53;;;2.60;;
81056;SDS011;70563;50.084;14.468;2023-06-24T00:54:12;4.00;;;2.85;;
81056;SDS011;70563;50.084;14.468;2023-06-24T00:56:38;4.70;;;2.80;;
81056;SDS011;70563;50.084;14.468;2023-06-24T00:59:03;5.18;;;3.47;;
81056;SDS011;70563;50.084;14.468;2023-06-24T01:01:32;3.85;;;2.83;;
81056;SDS011;70563;50.084;14.468;2023-06-24T01:04:00;5.07;;;3.42;;
81056;SDS011;70563;50.084;14.468;2023-06-24T01:06:27;3.25;;;2.67;;
81056;SDS011;70563;50.084;14.468;2023-06-24T01:08:57;5.25;;;3.00;;
81056;SDS011;70563;50.084;14.468;2023-06-24T01:11:25;4.28;;;2.80;;
81056;SDS011;70563;50.084;14.468;2023-06-24T01:13:51;3.67;;;3.20;;
81056;SDS011;70563;50.084;14.468;2023-06-24T01:16:29;4.13;;;3.15;;
81056;SDS011;70563;50.084;14.468;2023-06-24T01:19:18;4.78;;;2.78;;
81056;SDS011;70563;50.084;14.468;2023-06-24T01:22:06;4.40;;;3.00;;
81056;SDS011;70563;50.084;14.468;2023-06-24T01:27:26;4.95;;;2.88;;
81056;SDS011;70563;50.084;14.468;2023-06-24T01:32:59;4.45;;;2.45;;
81056;SDS011;70563;50.084;14.468;2023-06-24T01:35:31;3.67;;;2.72;;
81056;SDS011;70563;50.084;14.468;2023-06-24T01:37:59;5.57;;;2.70;;
81056;SDS011;70563;50.084;14.468;2023-06-24T01:40:30;5.18;;;3.22;;
81056;SDS011;70563;50.084;14.468;2023-06-24T01:43:00;4.85;;;3.22;;
81056;SDS011;70563;50.084;14.468;2023-06-24T01:45:32;4.00;;;3.00;;
81056;SDS011;70563;50.084;14.468;2023-06-24T01:48:03;4.68;;;2.85;;
81056;SDS011;70563;50.084;14.468;2023-06-24T01:50:35;3.22;;;2.63;;
81056;SDS011;70563;50.084;14.468;2023-06-24T01:53:02;3.38;;;2.67;;
81056;SDS011;70563;50.084;14.468;2023-06-24T01:55:31;4.45;;;2.95;;
81056;SDS011;70563;50.084;14.468;2023-06-24T01:57:58;4.47;;;3.33;;
81056;SDS011;70563;50.084;14.468;2023-06-24T02:00:26;4.75;;;3.33;;
81056;SDS011;70563;50.084;14.468;2023-06-24T02:02:53;5.00;;;3.17;;
81056;SDS011;70563;50.084;14.468;2023-06-24T02:05:20;3.85;;;2.85;;
81056;SDS011;70563;50.084;14.468;2023-06-24T02:07:46;3.92;;;3.33;;
81056;SDS011;70563;50.084;14.468;2023-06-24T02:10:14;5.32;;;3.42;;
81056;SDS011;70563;50.084;14.468;2023-06-24T02:12:41;4.05;;;3.10;;
81056;SDS011;70563;50.084;14.468;2023-06-24T02:15:09;4.90;;;2.97;;
81056;SDS011;70563;50.084;14.468;2023-06-24T02:17:35;3.50;;;2.92;;
81056;SDS011;70563;50.084;14.468;2023-06-24T02:20:03;4.63;;;2.85;;
81056;SDS011;70563;50.084;14.468;2023-06-24T02:22:30;4.32;;;3.40;;
81056;SDS011;70563;50.084;14.468;2023-06-24T02:24:56;4.65;;;3.33;;
81056;SDS011;70563;50.084;14.468;2023-06-24T02:27:22;4.28;;;3.03;;
81056;SDS011;70563;50.084;14.468;2023-06-24T02:29:48;4.25;;;3.30;;
81056;SDS011;70563;50.084;14.468;2023-06-24T02:32:15;3.63;;;3.00;;
81056;SDS011;70563;50.084;14.468;2023-06-24T02:34:41;4.40;;;3.03;;
81056;SDS011;70563;50.084;14.468;2023-06-24T02:37:06;4.78;;;3.13;;
81056;SDS011;70563;50.084;14.468;2023-06-24T02:39:32;4.20;;;3.15;;
81056;SDS011;70563;50.084;14.468;2023-06-24T02:41:57;4.72;;;3.28;;
81056;SDS011;70563;50.084;14.468;2023-06-24T02:44:23;3.45;;;2.67;;
81056;SDS011;70563;50.084;14.468;2023-06-24T02:46:48;4.10;;;3.20;;
81056;SDS011;70563;50.084;14.468;2023-06-24T02:49:15;4.70;;;3.42;;
81056;SDS011;70563;50.084;14.468;2023-06-24T02:51:42;4.88;;;2.95;;
81056;SDS011;70563;50.084;14.468;2023-06-24T02:54:09;5.43;;;2.65;;
81056;SDS011;70563;50.084;14.468;2023-06-24T02:56:37;4.53;;;3.10;;
81056;SDS011;70563;50.084;14.468;2023-06-24T02:59:06;4.65;;;3.30;;
81056;SDS011;70563;50.084;14.468;2023-06-24T03:01:32;3.70;;;2.55;;
81056;SDS011;70563;50.084;14.468;2023-06-24T03:04:03;3.47;;;2.65;;
81056;SDS011;70563;50.084;14.468;2023-06-24T03:06:29;5.45;;;2.70;;
81056;SDS011;70563;50.084;14.468;2023-06-24T03:08:56;4.07;;;2.15;;
81056;SDS011;70563;50.084;14.468;2023-06-24T03:11:22;4.57;;;2.47;;
81056;SDS011;70563;50.084;14.468;2023-06-24T03:13:48;4.65;;;2.20;;
81056;SDS011;70563;50.084;14.468;2023-06-24T03:16:13;3.53;;;2.40;;
81056;SDS011;70563;50.084;14.468;2023-06-24T03:18:40;5.60;;;3.05;;
81056;SDS011;70563;50.084;14.468;2023-06-24T03:21:06;4.20;;;2.78;;
81056;SDS011;70563;50.084;14.468;2023-06-24T03:23:32;4.05;;;2.60;;
81056;SDS011;70563;50.084;14.468;2023-06-24T03:25:57;3.95;;;2.60;;
81056;SDS011;70563;50.084;14.468;2023-06-24T03:28:23;5.15;;;2.35;;
81056;SDS011;70563;50.084;14.468;2023-06-24T03:30:48;3.60;;;2.40;;
81056;SDS011;70563;50.084;14.468;2023-06-24T03:33:14;5.85;;;2.80;;
81056;SDS011;70563;50.084;14.468;2023-06-24T03:35:45;4.43;;;2.28;;
81056;SDS011;70563;50.084;14.468;2023-06-24T03:38:10;4.78;;;2.70;;
81056;SDS011;70563;50.084;14.468;2023-06-24T03:40:36;5.07;;;2.55;;
81056;SDS011;70563;50.084;14.468;2023-06-24T03:43:02;3.83;;;2.40;;
81056;SDS011;70563;50.084;14.468;2023-06-24T03:45:27;4.53;;;2.55;;
81056;SDS011;70563;50.084;14.468;2023-06-24T03:47:53;4.85;;;2.85;;
81056;SDS011;70563;50.084;14.468;2023-06-24T03:50:18;4.38;;;2.13;;
81056;SDS011;70563;50.084;14.468;2023-06-24T03:52:44;4.95;;;2.67;;
81056;SDS011;70563;50.084;14.468;2023-06-24T03:55:09;3.22;;;2.40;;
81056;SDS011;70563;50.084;14.468;2023-06-24T03:57:36;5.57;;;2.95;;
81056;SDS011;70563;50.084;14.468;2023-06-24T04:00:01;6.15;;;3.10;;
81056;SDS011;70563;50.084;14.468;2023-06-24T04:02:32;5.32;;;2.83;;
81056;SDS011;70563;50.084;14.468;2023-06-24T04:04:57;4.70;;;3.22;;
81056;SDS011;70563;50.084;14.468;2023-06-24T04:07:23;4.82;;;3.40;;
81056;SDS011;70563;50.084;14.468;2023-06-24T04:09:55;6.40;;;3.78;;
81056;SDS011;70563;50.084;14.468;2023-06-24T04:12:21;6.10;;;2.90;;
81056;SDS011;70563;50.084;14.468;2023-06-24T04:14:46;8.75;;;3.45;;
81056;SDS011;70563;50.084;14.468;2023-06-24T04:17:11;4.70;;;3.20;;
81056;SDS011;70563;50.084;14.468;2023-06-24T04:19:37;5.82;;;3.83;;
81056;SDS011;70563;50.084;14.468;2023-06-24T04:22:02;6.28;;;4.07;;
81056;SDS011;70563;50.084;14.468;2023-06-24T04:24:28;8.18;;;3.92;;
81056;SDS011;70563;50.084;14.468;2023-06-24T04:26:53;8.18;;;4.15;;
81056;SDS011;70563;50.084;14.468;2023-06-24T04:29:18;6.43;;;4.30;;
81056;SDS011;70563;50.084;14.468;2023-06-24T04:31:44;7.07;;;4.15;;
81056;SDS011;70563;50.084;14.468;2023-06-24T04:34:09;7.20;;;3.85;;
81056;SDS011;70563;50.084;14.468;2023-06-24T04:36:34;6.15;;;4.10;;
81056;SDS011;70563;50.084;14.468;2023-06-24T04:39:00;8.88;;;4.85;;
81056;SDS011;70563;50.084;14.468;2023-06-24T04:41:25;6.45;;;4.40;;
81056;SDS011;70563;50.084;14.468;2023-06-24T04:43:51;5.68;;;4.40;;
81056;SDS011;70563;50.084;14.468;2023-06-24T04:46:16;5.10;;;3.97;;
81056;SDS011;70563;50.084;14.468;2023-06-24T04:48:42;5.43;;;4.38;;
81056;SDS011;70563;50.084;14.468;2023-06-24T04:51:07;8.35;;;4.70;;
81056;SDS011;70563;50.084;14.468;2023-06-24T04:53:32;7.75;;;5.18;;
81056;SDS011;70563;50.084;14.468;2023-06-24T04:55:58;6.68;;;4.57;;
81056;SDS011;70563;50.084;14.468;2023-06-24T04:58:24;15.55;;;6.03;;
81056;SDS011;70563;50.084;14.468;2023-06-24T05:00:49;9.68;;;5.38;;
81056;SDS011;70563;50.084;14.468;2023-06-24T05:03:15;10.63;;;4.95;;
81056;SDS011;70563;50.084;14.468;2023-06-24T05:05:40;8.23;;;5.47;;
81056;SDS011;70563;50.084;14.468;2023-06-24T05:08:05;6.88;;;4.70;;
81056;SDS011;70563;50.084;14.468;2023-06-24T05:10:31;8.05;;;4.78;;
81056;SDS011;70563;50.084;14.468;2023-06-24T05:12:56;10.65;;;5.78;;
81056;SDS011;70563;50.084;14.468;2023-06-24T05:15:21;7.55;;;5.38;;
81056;SDS011;70563;50.084;14.468;2023-06-24T05:17:47;7.60;;;6.03;;
81056;SDS011;70563;50.084;14.468;2023-06-24T05:20:12;7.30;;;5.85;;
81056;SDS011;70563;50.084;14.468;2023-06-24T05:22:38;9.70;;;5.60;;
81056;SDS011;70563;50.084;14.468;2023-06-24T05:25:03;9.88;;;5.93;;
81056;SDS011;70563;50.084;14.468;2023-06-24T05:27:29;12.50;;;6.28;;
81056;SDS011;70563;50.084;14.468;2023-06-24T05:29:54;9.18;;;5.45;;
81056;SDS011;70563;50.084;14.468;2023-06-24T05:32:19;8.23;;;5.57;;
81056;SDS011;70563;50.084;14.468;2023-06-24T05:34:45;10.07;;;5.93;;
81056;SDS011;70563;50.084;14.468;2023-06-24T05:37:11;9.75;;;6.30;;
81056;SDS011;70563;50.084;14.468;2023-06-24T05:39:36;8.80;;;5.50;;
81056;SDS011;70563;50.084;14.468;2023-06-24T05:42:02;8.85;;;6.32;;
81056;SDS011;70563;50.084;14.468;2023-06-24T05:44:27;10.77;;;6.18;;
81056;SDS011;70563;50.084;14.468;2023-06-24T05:46:53;10.00;;;6.03;;
81056;SDS011;70563;50.084;14.468;2023-06-24T05:49:18;7.95;;;5.90;;
81056;SDS011;70563;50.084;14.468;2023-06-24T05:51:43;11.25;;;6.00;;
81056;SDS011;70563;50.084;14.468;2023-06-24T05:54:09;6.95;;;5.28;;
81056;SDS011;70563;50.084;14.468;2023-06-24T05:56:34;9.90;;;5.80;;
81056;SDS011;70563;50.084;14.468;2023-06-24T05:59:01;7.63;;;5.97;;
81056;SDS011;70563;50.084;14.468;2023-06-24T06:01:26;9.43;;;6.38;;
81056;SDS011;70563;50.084;14.468;2023-06-24T06:03:52;8.95;;;6.05;;
81056;SDS011;70563;50.084;14.468;2023-06-24T06:06:17;11.40;;;6.40;;
81056;SDS011;70563;50.084;14.468;2023-06-24T06:08:43;8.05;;;6.18;;
81056;SDS011;70563;50.084;14.468;2023-06-24T06:11:08;8.63;;;6.05;;
81056;SDS011;70563;50.084;14.468;2023-06-24T06:13:33;9.68;;;7.20;;
81056;SDS011;70563;50.084;14.468;2023-06-24T06:15:59;12.63;;;7.35;;
81056;SDS011;70563;50.084;14.468;2023-06-24T06:18:24;10.18;;;7.30;;
81056;SDS011;70563;50.084;14.468;2023-06-24T06:20:50;14.05;;;7.53;;
81056;SDS011;70563;50.084;14.468;2023-06-24T06:23:15;11.45;;;7.55;;
81056;SDS011;70563;50.084;14.468;2023-06-24T06:25:41;10.95;;;7.70;;
81056;SDS011;70563;50.084;14.468;2023-06-24T06:28:07;11.90;;;7.88;;
81056;SDS011;70563;50.084;14.468;2023-06-24T06:30:33;13.57;;;7.78;;
81056;SDS011;70563;50.084;14.468;2023-06-24T06:32:58;12.73;;;9.00;;
81056;SDS011;70563;50.084;14.468;2023-06-24T06:35:23;14.90;;;8.23;;
81056;SDS011;70563;50.084;14.468;2023-06-24T06:37:49;12.32;;;8.32;;
81056;SDS011;70563;50.084;14.468;2023-06-24T06:40:21;12.07;;;8.07;;
81056;SDS011;70563;50.084;14.468;2023-06-24T06:42:47;12.10;;;8.75;;
81056;SDS011;70563;50.084;14.468;2023-06-24T06:45:12;15.13;;;9.32;;
81056;SDS011;70563;50.084;14.468;2023-06-24T06:47:38;12.80;;;9.48;;
81056;SDS011;70563;50.084;14.468;2023-06-24T06:50:03;13.20;;;9.63;;
81056;SDS011;70563;50.084;14.468;2023-06-24T06:52:29;16.25;;;10.13;;
81056;SDS011;70563;50.084;14.468;2023-06-24T06:54:54;13.93;;;10.10;;
81056;SDS011;70563;50.084;14.468;2023-06-24T06:57:20;13.35;;;9.30;;
81056;SDS011;70563;50.084;14.468;2023-06-24T06:59:46;17.40;;;10.50;;
81056;SDS011;70563;50.084;14.468;2023-06-24T07:02:11;12.25;;;8.50;;
81056;SDS011;70563;50.084;14.468;2023-06-24T07:04:37;12.30;;;9.70;;
81056;SDS011;70563;50.084;14.468;2023-06-24T07:07:02;15.40;;;9.00;;
81056;SDS011;70563;50.084;14.468;2023-06-24T07:09:28;14.55;;;8.85;;
81056;SDS011;70563;50.084;14.468;2023-06-24T07:11:53;10.60;;;8.13;;
81056;SDS011;70563;50.084;14.468;2023-06-24T07:14:18;11.95;;;8.57;;
81056;SDS011;70563;50.084;14.468;2023-06-24T07:16:44;9.82;;;8.20;;
81056;SDS011;70563;50.084;14.468;2023-06-24T07:19:09;13.13;;;8.93;;
81056;SDS011;70563;50.084;14.468;2023-06-24T07:21:35;14.95;;;9.77;;
81056;SDS011;70563;50.084;14.468;2023-06-24T07:24:00;12.23;;;9.43;;
81056;SDS011;70563;50.084;14.468;2023-06-24T07:26:25;11.18;;;8.93;;
81056;SDS011;70563;50.084;14.468;2023-06-24T07:28:53;14.88;;;10.25;;
81056;SDS011;70563;50.084;14.468;2023-06-24T07:31:21;13.20;;;10.00;;
81056;SDS011;70563;50.084;14.468;2023-06-24T07:33:46;12.95;;;9.95;;
81056;SDS011;70563;50.084;14.468;2023-06-24T07:36:11;14.10;;;10.05;;
81056;SDS011;70563;50.084;14.468;2023-06-24T07:38:38;11.13;;;9.73;;
81056;SDS011;70563;50.084;14.468;2023-06-24T07:41:03;14.45;;;9.57;;
81056;SDS011;70563;50.084;14.468;2023-06-24T07:43:29;12.13;;;10.32;;
81056;SDS011;70563;50.084;14.468;2023-06-24T07:45:54;13.18;;;9.75;;
81056;SDS011;70563;50.084;14.468;2023-06-24T07:48:19;12.68;;;10.50;;
81056;SDS011;70563;50.084;14.468;2023-06-24T07:50:45;18.30;;;11.27;;
81056;SDS011;70563;50.084;14.468;2023-06-24T07:53:10;13.70;;;11.55;;
81056;SDS011;70563;50.084;14.468;2023-06-24T07:55:35;13.43;;;11.50;;
81056;SDS011;70563;50.084;14.468;2023-06-24T07:58:01;13.57;;;10.30;;
81056;SDS011;70563;50.084;14.468;2023-06-24T08:00:27;12.32;;;10.27;;
81056;SDS011;70563;50.084;14.468;2023-06-24T08:02:53;12.82;;;9.90;;
81056;SDS011;70563;50.084;14.468;2023-06-24T08:05:20;12.25;;;10.13;;
81056;SDS011;70563;50.084;14.468;2023-06-24T08:07:46;13.05;;;9.95;;
81056;SDS011;70563;50.084;14.468;2023-06-24T08:10:11;10.23;;;9.15;;
81056;SDS011;70563;50.084;14.468;2023-06-24T08:12:36;11.13;;;9.68;;
81056;SDS011;70563;50.084;14.468;2023-06-24T08:15:02;10.52;;;9.50;;
81056;SDS011;70563;50.084;14.468;2023-06-24T08:17:28;11.30;;;8.50;;
81056;SDS011;70563;50.084;14.468;2023-06-24T08:19:53;10.23;;;8.60;;
81056;SDS011;70563;50.084;14.468;2023-06-24T08:22:19;10.30;;;7.97;;
81056;SDS011;70563;50.084;14.468;2023-06-24T08:24:44;8.43;;;7.63;;
81056;SDS011;70563;50.084;14.468;2023-06-24T08:27:09;8.73;;;7.65;;
81056;SDS011;70563;50.084;14.468;2023-06-24T08:29:35;8.52;;;7.30;;
81056;SDS011;70563;50.084;14.468;2023-06-24T08:32:00;8.18;;;7.38;;
81056;SDS011;70563;50.084;14.468;2023-06-24T08:34:26;12.05;;;6.60;;
81056;SDS011;70563;50.084;14.468;2023-06-24T08:36:51;7.05;;;6.35;;
81056;SDS011;70563;50.084;14.468;2023-06-24T08:39:17;7.80;;;6.45;;
81056;SDS011;70563;50.084;14.468;2023-06-24T08:41:42;7.28;;;6.55;;
81056;SDS011;70563;50.084;14.468;2023-06-24T08:44:07;6.85;;;5.88;;
81056;SDS011;70563;50.084;14.468;2023-06-24T08:46:33;8.20;;;6.47;;
81056;SDS011;70563;50.084;14.468;2023-06-24T08:51:49;10.23;;;5.53;;
81056;SDS011;70563;50.084;14.468;2023-06-24T08:54:28;10.15;;;6.88;;
81056;SDS011;70563;50.084;14.468;2023-06-24T08:56:53;6.90;;;5.85;;
81056;SDS011;70563;50.084;14.468;2023-06-24T08:59:19;7.00;;;6.30;;
81056;SDS011;70563;50.084;14.468;2023-06-24T09:01:45;6.55;;;5.55;;
81056;SDS011;70563;50.084;14.468;2023-06-24T09:04:14;6.18;;;5.20;;
81056;SDS011;70563;50.084;14.468;2023-06-24T09:06:39;5.68;;;5.07;;
81056;SDS011;70563;50.084;14.468;2023-06-24T09:09:05;4.68;;;4.10;;
81056;SDS011;70563;50.084;14.468;2023-06-24T09:11:42;5.35;;;4.85;;
81056;SDS011;70563;50.084;14.468;2023-06-24T09:14:19;7.35;;;5.18;;
81056;SDS011;70563;50.084;14.468;2023-06-24T09:17:18;6.20;;;5.53;;
81056;SDS011;70563;50.084;14.468;2023-06-24T09:19:37;6.45;;;4.80;;
81056;SDS011;70563;50.084;14.468;2023-06-24T09:22:03;6.10;;;4.55;;
81056;SDS011;70563;50.084;14.468;2023-06-24T09:24:36;7.47;;;5.53;;
81056;SDS011;70563;50.084;14.468;2023-06-24T09:27:02;7.30;;;5.57;;
81056;SDS011;70563;50.084;14.468;2023-06-24T09:29:31;7.70;;;6.32;;
81056;SDS011;70563;50.084;14.468;2023-06-24T09:31:58;8.65;;;6.90;;
81056;SDS011;70563;50.084;14.468;2023-06-24T09:34:28;8.90;;;7.32;;
81056;SDS011;70563;50.084;14.468;2023-06-24T09:36:54;8.25;;;7.32;;
81056;SDS011;70563;50.084;14.468;2023-06-24T09:39:20;7.70;;;6.90;;
81056;SDS011;70563;50.084;14.468;2023-06-24T09:41:50;8.48;;;7.18;;
81056;SDS011;70563;50.084;14.468;2023-06-24T09:44:15;7.93;;;7.13;;
81056;SDS011;70563;50.084;14.468;2023-06-24T09:46:44;9.60;;;7.88;;
81056;SDS011;70563;50.084;14.468;2023-06-24T09:49:09;6.93;;;6.07;;
81056;SDS011;70563;50.084;14.468;2023-06-24T09:51:37;7.32;;;5.75;;
81056;SDS011;70563;50.084;14.468;2023-06-24T09:54:06;7.72;;;6.22;;
81056;SDS011;70563;50.084;14.468;2023-06-24T09:56:35;7.72;;;5.53;;
81056;SDS011;70563;50.084;14.468;2023-06-24T09:59:04;9.70;;;6.60;;
81056;SDS011;70563;50.084;14.468;2023-06-24T10:01:31;7.05;;;6.35;;
81056;SDS011;70563;50.084;14.468;2023-06-24T10:03:59;6.53;;;5.88;;
81056;SDS011;70563;50.084;14.468;2023-06-24T10:06:26;6.68;;;5.95;;
81056;SDS011;70563;50.084;14.468;2023-06-24T10:08:52;6.65;;;5.80;;
81056;SDS011;70563;50.084;14.468;2023-06-24T10:11:18;8.23;;;7.47;;
81056;SDS011;70563;50.084;14.468;2023-06-24T10:13:43;8.40;;;7.63;;
81056;SDS011;70563;50.084;14.468;2023-06-24T10:16:09;8.77;;;7.03;;
81056;SDS011;70563;50.084;14.468;2023-06-24T10:18:35;7.60;;;5.90;;
81056;SDS011;70563;50.084;14.468;2023-06-24T10:21:02;7.10;;;5.78;;
81056;SDS011;70563;50.084;14.468;2023-06-24T10:39:34;7.07;;;6.38;;
81056;SDS011;70563;50.084;14.468;2023-06-24T10:44:54;7.95;;;6.22;;
81056;SDS011;70563;50.084;14.468;2023-06-24T10:47:24;7.50;;;5.57;;
81056;SDS011;70563;50.084;14.468;2023-06-24T10:49:51;7.35;;;6.60;;
81056;SDS011;70563;50.084;14.468;2023-06-24T10:52:21;7.00;;;5.68;;
81056;SDS011;70563;50.084;14.468;2023-06-24T10:54:48;6.35;;;5.70;;
81056;SDS011;70563;50.084;14.468;2023-06-24T10:57:15;9.20;;;6.38;;
81056;SDS011;70563;50.084;14.468;2023-06-24T10:59:49;6.65;;;5.88;;
81056;SDS011;70563;50.084;14.468;2023-06-24T11:02:19;7.20;;;5.50;;
81056;SDS011;70563;50.084;14.468;2023-06-24T11:04:47;5.80;;;5.30;;
81056;SDS011;70563;50.084;14.468;2023-06-24T11:07:14;5.65;;;5.07;;
81056;SDS011;70563;50.084;14.468;2023-06-24T11:09:41;7.28;;;5.63;;
81056;SDS011;70563;50.084;14.468;2023-06-24T11:12:10;5.85;;;5.20;;
81056;SDS011;70563;50.084;14.468;2023-06-24T11:14:37;5.63;;;5.13;;
81056;SDS011;70563;50.084;14.468;2023-06-24T11:17:03;8.32;;;5.22;;
81056;SDS011;70563;50.084;14.468;2023-06-24T11:19:32;5.95;;;5.45;;
81056;SDS011;70563;50.084;14.468;2023-06-24T11:21:59;8.05;;;5.90;;
81056;SDS011;70563;50.084;14.468;2023-06-24T11:24:25;6.60;;;5.28;;
81056;SDS011;70563;50.084;14.468;2023-06-24T11:26:51;5.38;;;4.70;;
81056;SDS011;70563;50.084;14.468;2023-06-24T11:29:16;6.82;;;4.85;;
81056;SDS011;70563;50.084;14.468;2023-06-24T11:31:42;6.10;;;4.82;;
81056;SDS011;70563;50.084;14.468;2023-06-24T11:34:09;6.57;;;5.75;;
81056;SDS011;70563;50.084;14.468;2023-06-24T11:36:35;5.03;;;4.05;;
81056;SDS011;70563;50.084;14.468;2023-06-24T11:39:01;5.68;;;4.90;;
81056;SDS011;70563;50.084;14.468;2023-06-24T11:41:26;7.82;;;4.90;;
81056;SDS011;70563;50.084;14.468;2023-06-24T11:43:53;4.75;;;4.25;;
81056;SDS011;70563;50.084;14.468;2023-06-24T11:46:28;5.80;;;5.20;;
81056;SDS011;70563;50.084;14.468;2023-06-24T11:49:08;5.60;;;4.30;;
81056;SDS011;70563;50.084;14.468;2023-06-24T11:54:00;7.03;;;5.47;;
81056;SDS011;70563;50.084;14.468;2023-06-24T11:56:36;5.43;;;4.93;;
81056;SDS011;70563;50.084;14.468;2023-06-24T11:59:21;6.28;;;4.45;;
81056;SDS011;70563;50.084;14.468;2023-06-24T12:01:56;4.78;;;4.18;;
81056;SDS011;70563;50.084;14.468;2023-06-24T12:04:29;4.90;;;4.40;;
81056;SDS011;70563;50.084;14.468;2023-06-24T12:06:55;6.85;;;4.40;;
81056;SDS011;70563;50.084;14.468;2023-06-24T12:09:21;5.75;;;4.38;;
81056;SDS011;70563;50.084;14.468;2023-06-24T12:11:47;6.07;;;4.75;;
81056;SDS011;70563;50.084;14.468;2023-06-24T12:14:12;6.78;;;4.30;;
81056;SDS011;70563;50.084;14.468;2023-06-24T12:16:38;5.32;;;4.68;;
81056;SDS011;70563;50.084;14.468;2023-06-24T12:19:05;6.18;;;4.30;;
81056;SDS011;70563;50.084;14.468;2023-06-24T12:21:31;7.90;;;3.97;;
81056;SDS011;70563;50.084;14.468;2023-06-24T12:23:57;4.65;;;4.20;;
81056;SDS011;70563;50.084;14.468;2023-06-24T12:26:22;5.20;;;3.90;;
81056;SDS011;70563;50.084;14.468;2023-06-24T12:28:47;4.88;;;4.38;;
81056;SDS011;70563;50.084;14.468;2023-06-24T12:31:13;4.38;;;3.97;;
81056;SDS011;70563;50.084;14.468;2023-06-24T12:33:38;5.63;;;4.32;;
81056;SDS011;70563;50.084;14.468;2023-06-24T12:36:04;5.53;;;3.83;;
81056;SDS011;70563;50.084;14.468;2023-06-24T12:38:29;5.30;;;4.50;;
81056;SDS011;70563;50.084;14.468;2023-06-24T12:40:55;6.13;;;4.10;;
81056;SDS011;70563;50.084;14.468;2023-06-24T12:43:22;4.40;;;4.00;;
81056;SDS011;70563;50.084;14.468;2023-06-24T12:45:47;4.63;;;4.13;;
81056;SDS011;70563;50.084;14.468;2023-06-24T12:48:12;5.22;;;4.22;;
81056;SDS011;70563;50.084;14.468;2023-06-24T12:50:38;6.35;;;3.88;;
81056;SDS011;70563;50.084;14.468;2023-06-24T12:53:04;4.50;;;4.10;;
81056;SDS011;70563;50.084;14.468;2023-06-24T12:55:30;4.63;;;4.20;;
81056;SDS011;70563;50.084;14.468;2023-06-24T12:57:55;4.63;;;3.92;;
81056;SDS011;70563;50.084;14.468;2023-06-24T13:00:21;4.65;;;3.55;;
81056;SDS011;70563;50.084;14.468;2023-06-24T13:02:48;3.85;;;3.55;;
81056;SDS011;70563;50.084;14.468;2023-06-24T13:05:14;5.15;;;3.70;;
81056;SDS011;70563;50.084;14.468;2023-06-24T13:07:40;3.75;;;3.35;;
81056;SDS011;70563;50.084;14.468;2023-06-24T13:10:05;7.20;;;3.58;;
81056;SDS011;70563;50.084;14.468;2023-06-24T13:12:34;5.22;;;4.25;;
81056;SDS011;70563;50.084;14.468;2023-06-24T13:15:00;4.40;;;4.00;;
81056;SDS011;70563;50.084;14.468;2023-06-24T13:17:29;3.90;;;3.55;;
81056;SDS011;70563;50.084;14.468;2023-06-24T13:19:55;3.45;;;3.15;;
81056;SDS011;70563;50.084;14.468;2023-06-24T13:22:21;5.10;;;3.50;;
81056;SDS011;70563;50.084;14.468;2023-06-24T13:24:47;4.43;;;3.40;;
81056;SDS011;70563;50.084;14.468;2023-06-24T13:27:12;4.68;;;3.72;;
81056;SDS011;70563;50.084;14.468;2023-06-24T13:29:37;4.30;;;3.58;;
81056;SDS011;70563;50.084;14.468;2023-06-24T13:32:03;6.30;;;4.00;;
81056;SDS011;70563;50.084;14.468;2023-06-24T13:34:28;4.85;;;3.83;;
81056;SDS011;70563;50.084;14.468;2023-06-24T13:36:54;4.75;;;3.90;;
81056;SDS011;70563;50.084;14.468;2023-06-24T13:39:19;4.65;;;3.60;;
81056;SDS011;70563;50.084;14.468;2023-06-24T13:41:47;4.43;;;3.53;;
81056;SDS011;70563;50.084;14.468;2023-06-24T13:44:13;5.97;;;4.00;;
81056;SDS011;70563;50.084;14.468;2023-06-24T13:46:38;4.32;;;3.92;;
81056;SDS011;70563;50.084;14.468;2023-06-24T13:49:04;4.30;;;3.90;;
81056;SDS011;70563;50.084;14.468;2023-06-24T13:51:29;5.43;;;3.80;;
81056;SDS011;70563;50.084;14.468;2023-06-24T13:53:54;5.25;;;3.95;;
81056;SDS011;70563;50.084;14.468;2023-06-24T13:56:21;7.55;;;3.83;;
81056;SDS011;70563;50.084;14.468;2023-06-24T13:58:47;5.57;;;4.07;;
81056;SDS011;70563;50.084;14.468;2023-06-24T14:01:13;6.82;;;4.45;;
81056;SDS011;70563;50.084;14.468;2023-06-24T14:03:39;6.05;;;4.05;;
81056;SDS011;70563;50.084;14.468;2023-06-24T14:06:04;4.93;;;4.22;;
81056;SDS011;70563;50.084;14.468;2023-06-24T14:08:31;6.22;;;5.00;;
81056;SDS011;70563;50.084;14.468;2023-06-24T14:10:57;5.22;;;4.43;;
81056;SDS011;70563;50.084;14.468;2023-06-24T14:13:23;5.35;;;4.40;;
81056;SDS011;70563;50.084;14.468;2023-06-24T14:15:49;7.45;;;5.05;;
81056;SDS011;70563;50.084;14.468;2023-06-24T14:18:15;7.43;;;4.50;;
81056;SDS011;70563;50.084;14.468;2023-06-24T14:20:40;6.18;;;4.25;;
81056;SDS011;70563;50.084;14.468;2023-06-24T14:23:06;7.07;;;4.18;;
81056;SDS011;70563;50.084;14.468;2023-06-24T14:25:31;5.85;;;4.50;;
81056;SDS011;70563;50.084;14.468;2023-06-24T14:27:57;7.95;;;5.60;;
81056;SDS011;70563;50.084;14.468;2023-06-24T14:30:22;9.93;;;4.72;;
81056;SDS011;70563;50.084;14.468;2023-06-24T14:32:47;4.85;;;4.15;;
81056;SDS011;70563;50.084;14.468;2023-06-24T14:35:13;8.05;;;4.47;;
81056;SDS011;70563;50.084;14.468;2023-06-24T14:37:38;6.03;;;4.88;;
81056;SDS011;70563;50.084;14.468;2023-06-24T14:40:04;5.70;;;4.60;;
81056;SDS011;70563;50.084;14.468;2023-06-24T14:42:30;6.03;;;4.57;;
81056;SDS011;70563;50.084;14.468;2023-06-24T14:44:56;5.13;;;4.32;;
81056;SDS011;70563;50.084;14.468;2023-06-24T14:47:22;7.80;;;5.05;;
81056;SDS011;70563;50.084;14.468;2023-06-24T14:49:47;6.72;;;4.78;;
81056;SDS011;70563;50.084;14.468;2023-06-24T14:52:13;6.80;;;5.00;;
81056;SDS011;70563;50.084;14.468;2023-06-24T14:54:38;6.63;;;5.20;;
81056;SDS011;70563;50.084;14.468;2023-06-24T14:57:03;7.35;;;5.05;;